Time;durP1;ratioP1;P1;durP2;ratioP2;P2;SDS_P1;SDS_P2;PMS_P1;PMS_P2;Temp;Humidity;BMP_temperature;BMP_pressure;BME280_temperature;BME280_humidity;BME280_pressure;Samples;Min_cycle;Max_cycle;Signal;HPM_P1;HPM_P2
2023/04/27 00:00:12;;;;;;;3.57;0.70;;;;;;;;;;4996134;28;20626;-89
2023/04/27 00:02:40;;;;;;;0.20;0.20;;;;;;;;;;4996889;28;20209;-89
2023/04/27 00:05:10;;;;;;;0.27;0.27;;;;;;;;;;4996608;28;20701;-90
2023/04/27 00:07:43;;;;;;;11.93;1.07;;;;;;;;;;4996594;28;20212;-91
2023/04/27 00:10:11;;;;;;;1.70;0.67;;;;;;;;;;4996454;28;20568;-89
2023/04/27 00:12:41;;;;;;;0.20;0.20;;;;;;;;;;4995876;28;20229;-90
2023/04/27 00:15:10;;;;;;;0.20;0.20;;;;;;;;;;4995334;28;20213;-89
2023/04/27 00:17:39;;;;;;;0.20;0.20;;;;;;;;;;4996343;28;20197;-91
2023/04/27 00:20:12;;;;;;;0.20;0.20;;;;;;;;;;4996236;28;20280;-90
2023/04/27 00:22:42;;;;;;;0.10;0.10;;;;;;;;;;4998659;28;20225;-88
2023/04/27 00:25:10;;;;;;;0.10;0.10;;;;;;;;;;5001021;28;20204;-89
2023/04/27 00:27:38;;;;;;;1.50;0.20;;;;;;;;;;4995640;28;20193;-90
2023/04/27 00:30:06;;;;;;;0.30;0.30;;;;;;;;;;4996986;28;20204;-90
2023/04/27 00:32:35;;;;;;;0.20;0.20;;;;;;;;;;4998327;28;20645;-88
2023/04/27 00:35:02;;;;;;;0.30;0.30;;;;;;;;;;5003710;28;20202;-90
2023/04/27 00:37:32;;;;;;;0.53;0.53;;;;;;;;;;5012948;28;20204;-88
2023/04/27 00:40:03;;;;;;;0.77;0.77;;;;;;;;;;4998676;28;20201;-89
2023/04/27 00:42:31;;;;;;;0.20;0.20;;;;;;;;;;4997237;28;20266;-88
2023/04/27 00:45:06;;;;;;;0.40;0.40;;;;;;;;;;5000658;28;20232;-90
2023/04/27 00:47:38;;;;;;;0.10;0.10;;;;;;;;;;5003446;28;20216;-89
2023/04/27 00:50:09;;;;;;;0.60;0.60;;;;;;;;;;5000992;28;20284;-89
2023/04/27 00:52:37;;;;;;;0.30;0.30;;;;;;;;;;4997344;28;20323;-89
2023/04/27 00:55:18;;;;;;;0.30;0.30;;;;;;;;;;4996100;28;20201;-90
2023/04/27 00:57:47;;;;;;;1.03;0.77;;;;;;;;;;4996060;28;20197;-90
2023/04/27 01:00:15;;;;;;;0.90;0.50;;;;;;;;;;4997288;28;20205;-89
2023/04/27 01:02:43;;;;;;;0.40;0.40;;;;;;;;;;4995523;28;20568;-89
2023/04/27 01:05:11;;;;;;;0.30;0.30;;;;;;;;;;4995715;28;20208;-90
2023/04/27 01:07:40;;;;;;;0.20;0.20;;;;;;;;;;4994643;28;20204;-89
2023/04/27 01:10:09;;;;;;;0.30;0.30;;;;;;;;;;4995989;28;20201;-89
2023/04/27 01:12:40;;;;;;;0.97;0.13;;;;;;;;;;4995336;28;20276;-89
2023/04/27 01:15:08;;;;;;;0.10;0.10;;;;;;;;;;4995464;28;20640;-89
2023/04/27 01:17:38;;;;;;;1.07;0.63;;;;;;;;;;4995984;28;20224;-87
2023/04/27 01:20:11;;;;;;;0.43;0.43;;;;;;;;;;4996367;28;20205;-89
2023/04/27 01:22:39;;;;;;;0.20;0.20;;;;;;;;;;4995268;28;20197;-88
2023/04/27 01:25:15;;;;;;;0.40;0.30;;;;;;;;;;4995750;28;20209;-87
2023/04/27 01:27:49;;;;;;;0.30;0.30;;;;;;;;;;5004954;28;20263;-88
2023/04/27 01:30:24;;;;;;;0.70;0.43;;;;;;;;;;5004049;28;20205;-87
2023/04/27 01:32:55;;;;;;;0.27;0.23;;;;;;;;;;4997010;28;20224;-90
2023/04/27 01:35:23;;;;;;;0.60;0.60;;;;;;;;;;4998419;28;20663;-88
2023/04/27 01:37:51;;;;;;;0.40;0.40;;;;;;;;;;4999983;28;20199;-89
2023/04/27 01:40:20;;;;;;;0.50;0.50;;;;;;;;;;4995838;28;20204;-90
2023/04/27 01:42:49;;;;;;;1.70;0.77;;;;;;;;;;4995218;28;20216;-89
2023/04/27 01:45:18;;;;;;;0.17;0.17;;;;;;;;;;4995223;28;20213;-89
2023/04/27 01:47:47;;;;;;;0.57;0.50;;;;;;;;;;4995276;28;20221;-89
2023/04/27 01:50:15;;;;;;;0.50;0.50;;;;;;;;;;4996475;28;20694;-88
2023/04/27 01:52:43;;;;;;;0.20;0.20;;;;;;;;;;4995470;28;20252;-88
2023/04/27 01:55:12;;;;;;;0.00;0.00;;;;;;;;;;4994588;28;20224;-90
2023/04/27 01:57:41;;;;;;;0.73;0.73;;;;;;;;;;4996139;28;20205;-89
2023/04/27 02:00:11;;;;;;;1.23;0.30;;;;;;;;;;4995088;28;20204;-89
2023/04/27 02:02:39;;;;;;;0.40;0.37;;;;;;;;;;4995037;28;20225;-88
2023/04/27 02:05:08;;;;;;;0.43;0.43;;;;;;;;;;4994552;28;20201;-89
2023/04/27 02:07:38;;;;;;;0.30;0.30;;;;;;;;;;4994918;28;20228;-88
2023/04/27 02:10:09;;;;;;;0.00;0.00;;;;;;;;;;4993842;28;20678;-91
2023/04/27 02:12:39;;;;;;;1.80;0.60;;;;;;;;;;4993809;28;20201;-90
2023/04/27 02:15:10;;;;;;;0.30;0.30;;;;;;;;;;4994527;28;20235;-87
2023/04/27 02:17:38;;;;;;;0.73;0.30;;;;;;;;;;4994092;28;20199;-89
2023/04/27 02:20:09;;;;;;;0.57;0.57;;;;;;;;;;4993282;28;20200;-90
2023/04/27 02:22:37;;;;;;;0.10;0.10;;;;;;;;;;4993932;28;20221;-89
2023/04/27 02:25:06;;;;;;;0.40;0.40;;;;;;;;;;4992900;28;20252;-90
2023/04/27 02:27:34;;;;;;;0.53;0.53;;;;;;;;;;4994432;28;20518;-89
2023/04/27 02:30:06;;;;;;;0.30;0.30;;;;;;;;;;4992116;28;20260;-90
2023/04/27 02:32:37;;;;;;;3.43;0.77;;;;;;;;;;4994055;28;20232;-89
2023/04/27 02:35:05;;;;;;;0.43;0.40;;;;;;;;;;4993513;28;20729;-89
2023/04/27 02:37:34;;;;;;;0.63;0.63;;;;;;;;;;4997655;28;20201;-89
2023/04/27 02:40:03;;;;;;;1.27;0.10;;;;;;;;;;5000978;28;20201;-89
2023/04/27 02:42:40;;;;;;;0.30;0.30;;;;;;;;;;5013589;28;20201;-89
2023/04/27 02:45:08;;;;;;;0.40;0.40;;;;;;;;;;4995305;28;20199;-90
2023/04/27 02:47:43;;;;;;;0.10;0.10;;;;;;;;;;4993759;28;20292;-90
2023/04/27 02:50:14;;;;;;;0.20;0.20;;;;;;;;;;4994479;28;20283;-89
2023/04/27 02:52:42;;;;;;;1.00;1.00;;;;;;;;;;4993722;28;20205;-88
2023/04/27 02:55:10;;;;;;;0.40;0.40;;;;;;;;;;4993722;28;20208;-89
2023/04/27 02:57:39;;;;;;;0.27;0.27;;;;;;;;;;4994419;28;20263;-89
2023/04/27 03:00:10;;;;;;;6.33;0.30;;;;;;;;;;4995341;28;20553;-89
2023/04/27 03:02:44;;;;;;;0.10;0.10;;;;;;;;;;4993089;28;20201;-90
2023/04/27 03:05:27;;;;;;;0.67;0.67;;;;;;;;;;4994851;28;20186;-90
2023/04/27 03:08:01;;;;;;;0.20;0.20;;;;;;;;;;4997918;28;20576;-89
2023/04/27 03:10:36;;;;;;;1.50;0.50;;;;;;;;;;4997182;28;20248;-90
2023/04/27 03:13:05;;;;;;;0.10;0.10;;;;;;;;;;4997567;28;20189;-89
2023/04/27 03:15:35;;;;;;;0.40;0.40;;;;;;;;;;4997761;28;20537;-89
2023/04/27 03:18:05;;;;;;;0.00;0.00;;;;;;;;;;4997008;28;20205;-90
2023/04/27 03:20:33;;;;;;;0.40;0.40;;;;;;;;;;4997154;28;20221;-89
2023/04/27 03:23:01;;;;;;;0.10;0.10;;;;;;;;;;4997090;28;20496;-89
2023/04/27 03:25:40;;;;;;;0.87;0.87;;;;;;;;;;4996743;28;20209;-89
2023/04/27 03:28:15;;;;;;;1.60;0.60;;;;;;;;;;4997238;28;20253;-89
2023/04/27 03:30:55;;;;;;;1.03;0.50;;;;;;;;;;4996776;28;20349;-90
2023/04/27 03:33:30;;;;;;;0.17;0.17;;;;;;;;;;4997303;28;20229;-89
2023/04/27 03:36:03;;;;;;;0.77;0.77;;;;;;;;;;4991701;28;20283;-89
2023/04/27 03:38:31;;;;;;;0.13;0.13;;;;;;;;;;5013699;28;20260;-88
2023/04/27 03:41:04;;;;;;;0.47;0.47;;;;;;;;;;5005382;28;20259;-89
2023/04/27 03:43:36;;;;;;;0.70;0.70;;;;;;;;;;4998416;28;20665;-89
2023/04/27 03:46:04;;;;;;;0.50;0.50;;;;;;;;;;5004346;28;20256;-89
2023/04/27 03:48:38;;;;;;;0.50;0.50;;;;;;;;;;5009403;28;20209;-90
2023/04/27 03:51:18;;;;;;;0.30;0.30;;;;;;;;;;4997069;28;20201;-91
2023/04/27 03:53:45;;;;;;;0.30;0.30;;;;;;;;;;4996211;28;20239;-90
2023/04/27 03:56:29;;;;;;;0.77;0.77;;;;;;;;;;4995790;28;20200;-89
2023/04/27 04:01:54;;;;;;;1.13;0.60;;;;;;;;;;4986358;28;20220;-91
2023/04/27 04:04:43;;;;;;;0.20;0.20;;;;;;;;;;4996093;28;20212;-89
2023/04/27 04:07:21;;;;;;;0.07;0.07;;;;;;;;;;4986414;28;20209;-89
2023/04/27 04:09:59;;;;;;;0.10;0.10;;;;;;;;;;4996969;28;20519;-89
2023/04/27 04:12:36;;;;;;;0.13;0.13;;;;;;;;;;4999143;28;20229;-90
2023/04/27 04:15:13;;;;;;;2.60;0.77;;;;;;;;;;4996944;28;20229;-89
2023/04/27 04:17:46;;;;;;;1.23;1.23;;;;;;;;;;4995240;28;20205;-88
2023/04/27 04:20:23;;;;;;;0.13;0.13;;;;;;;;;;4996528;28;20678;-89
2023/04/27 04:22:51;;;;;;;0.23;0.23;;;;;;;;;;4996661;28;20201;-90
2023/04/27 04:25:21;;;;;;;0.10;0.10;;;;;;;;;;4996839;28;20257;-90
2023/04/27 04:27:49;;;;;;;2.57;1.23;;;;;;;;;;4997897;28;20629;-90
2023/04/27 04:30:25;;;;;;;0.60;0.60;;;;;;;;;;4999432;28;20213;-88
2023/04/27 04:33:03;;;;;;;0.30;0.30;;;;;;;;;;4996213;28;20665;-89
2023/04/27 04:35:33;;;;;;;0.20;0.20;;;;;;;;;;4997374;28;20224;-90
2023/04/27 04:38:01;;;;;;;4.37;0.77;;;;;;;;;;4999614;28;20208;-89
2023/04/27 04:43:38;;;;;;;0.10;0.10;;;;;;;;;;4993909;28;20228;-89
2023/04/27 04:46:29;;;;;;;0.10;0.10;;;;;;;;;;5006320;28;20198;-90
2023/04/27 04:49:01;;;;;;;0.63;0.50;;;;;;;;;;5008025;28;20275;-88
2023/04/27 04:57:50;;;;;;;0.87;0.67;;;;;;;;;;4896124;29;20204;-88
2023/04/27 05:00:39;;;;;;;1.10;1.10;;;;;;;;;;4973504;28;20221;-89
2023/04/27 05:03:30;;;;;;;0.50;0.50;;;;;;;;;;5005419;28;20251;-88
2023/04/27 05:06:04;;;;;;;0.40;0.40;;;;;;;;;;4996409;28;20250;-91
2023/04/27 05:08:43;;;;;;;0.57;0.57;;;;;;;;;;4996661;28;20206;-90
2023/04/27 05:11:17;;;;;;;1.60;1.50;;;;;;;;;;4995784;28;20332;-90
2023/04/27 05:13:47;;;;;;;1.53;1.43;;;;;;;;;;4996462;28;20225;-89
2023/04/27 05:19:20;;;;;;;;;;;;;;;;;;;;;
2023/04/27 05:22:25;;;;;;;2.33;1.33;;;;;;;;;;4994675;28;20224;-90
2023/04/27 05:25:24;;;;;;;0.57;0.53;;;;;;;;;;4975400;28;20201;-90
2023/04/27 05:28:20;;;;;;;;;;;;;;;;;;;;;
2023/04/27 05:31:01;;;;;;;0.43;0.43;;;;;;;;;;4995339;28;20210;-90
2023/04/27 05:33:55;;;;;;;1.27;0.50;;;;;;;;;;4994639;28;20201;-90
2023/04/27 05:36:47;;;;;;;0.40;0.40;;;;;;;;;;4986028;28;20586;-90
2023/04/27 05:42:03;;;;;;;0.70;0.63;;;;;;;;;;4974256;28;20292;-90
2023/04/27 05:48:15;;;;;;;;;;;;;;;;;;;;;
2023/04/27 05:54:28;;;;;;;;;;;;;;;;;;;;;
2023/04/27 06:00:14;;;;;;;1.93;0.70;;;;;;;;;;4973886;28;20198;-89
2023/04/27 06:05:38;;;;;;;5.40;0.53;;;;;;;;;;4981502;28;20682;-89
2023/04/27 06:08:10;;;;;;;0.80;0.30;;;;;;;;;;4997635;28;20197;-90
2023/04/27 06:10:54;;;;;;;2.67;1.23;;;;;;;;;;5000195;28;20328;-91
2023/04/27 06:13:23;;;;;;;0.97;0.80;;;;;;;;;;5002747;28;20283;-90
2023/04/27 06:15:53;;;;;;;0.40;0.40;;;;;;;;;;4996035;28;20303;-89
2023/04/27 06:18:34;;;;;;;0.60;0.60;;;;;;;;;;4995441;28;20221;-90
2023/04/27 06:21:10;;;;;;;0.73;0.47;;;;;;;;;;4976791;28;20289;-90
2023/04/27 06:23:41;;;;;;;1.10;0.80;;;;;;;;;;4977281;28;20201;-89
2023/04/27 06:26:11;;;;;;;1.00;0.20;;;;;;;;;;4975190;28;20209;-89
2023/04/27 06:28:41;;;;;;;1.03;0.50;;;;;;;;;;4975833;28;20213;-90
2023/04/27 06:31:15;;;;;;;0.53;0.30;;;;;;;;;;4978378;28;20229;-88
2023/04/27 06:34:05;;;;;;;0.63;0.63;;;;;;;;;;4979226;28;20201;-90
2023/04/27 06:36:35;;;;;;;0.73;0.73;;;;;;;;;;4966163;28;20202;-89
2023/04/27 06:39:06;;;;;;;2.37;1.03;;;;;;;;;;4978128;28;20286;-89
2023/04/27 06:41:48;;;;;;;1.00;0.87;;;;;;;;;;4977546;28;20695;-90
2023/04/27 06:44:22;;;;;;;3.33;1.37;;;;;;;;;;4982742;28;20512;-90
2023/04/27 06:46:56;;;;;;;2.20;0.97;;;;;;;;;;4976096;28;20681;-91
2023/04/27 06:49:30;;;;;;;3.33;0.63;;;;;;;;;;4984091;28;20312;-88
2023/04/27 06:52:05;;;;;;;6.80;1.37;;;;;;;;;;4995125;28;20199;-89
2023/04/27 06:54:40;;;;;;;0.70;0.70;;;;;;;;;;4995235;28;20627;-90
2023/04/27 06:57:16;;;;;;;0.97;0.83;;;;;;;;;;4997126;28;20217;-90
2023/04/27 07:00:19;;;;;;;;;;;;;;;;;;;;;
2023/04/27 07:03:10;;;;;;;0.90;0.90;;;;;;;;;;5012814;28;20208;-88
2023/04/27 07:06:05;;;;;;;0.60;0.60;;;;;;;;;;5002018;28;20214;-89
2023/04/27 07:08:55;;;;;;;0.33;0.33;;;;;;;;;;4969678;28;20208;-90
2023/04/27 07:11:25;;;;;;;0.90;0.60;;;;;;;;;;4994701;28;20237;-89
2023/04/27 07:14:14;;;;;;;0.53;0.53;;;;;;;;;;4994489;28;20198;-87
2023/04/27 07:16:46;;;;;;;0.70;0.70;;;;;;;;;;4997393;28;20208;-90
2023/04/27 07:19:16;;;;;;;0.87;0.73;;;;;;;;;;4991719;28;20214;-89
2023/04/27 07:21:50;;;;;;;0.75;0.75;;;;;;;;;;4976236;28;20199;-89
2023/04/27 07:24:24;;;;;;;1.13;1.13;;;;;;;;;;4977669;28;20214;-89
2023/04/27 07:26:53;;;;;;;0.35;0.35;;;;;;;;;;4979383;28;20194;-89
2023/04/27 07:29:29;;;;;;;1.20;0.83;;;;;;;;;;4974577;28;20204;-89
2023/04/27 07:32:32;;;;;;;1.07;1.07;;;;;;;;;;4974883;28;20220;-90
2023/04/27 07:35:01;;;;;;;1.30;0.60;;;;;;;;;;4975346;28;20229;-89
2023/04/27 07:37:30;;;;;;;0.67;0.67;;;;;;;;;;4975071;28;20257;-89
2023/04/27 07:40:01;;;;;;;2.60;0.97;;;;;;;;;;4976138;28;20683;-90
2023/04/27 07:42:46;;;;;;;1.27;0.70;;;;;;;;;;4979603;28;20207;-91
2023/04/27 07:45:30;;;;;;;1.73;0.73;;;;;;;;;;4981572;28;20250;-87
2023/04/27 07:48:00;;;;;;;2.17;0.60;;;;;;;;;;4991989;28;20229;-89
2023/04/27 07:50:41;;;;;;;;;;;;;;;;;;;;;
2023/04/27 07:53:25;;;;;;;1.45;0.85;;;;;;;;;;4996001;28;20236;-88
2023/04/27 07:56:01;;;;;;;0.28;0.28;;;;;;;;;;4995766;28;20248;-88
2023/04/27 07:58:38;;;;;;;0.57;0.57;;;;;;;;;;4995876;28;20789;-92
2023/04/27 08:03:54;;;;;;;0.60;0.60;;;;;;;;;;4992083;28;20225;-92
2023/04/27 08:09:28;;;;;;;0.65;0.65;;;;;;;;;;4978189;28;20256;-92
2023/04/27 08:12:18;;;;;;;1.77;1.00;;;;;;;;;;4977869;28;20240;-92
2023/04/27 08:14:46;;;;;;;0.80;0.80;;;;;;;;;;4977375;28;20315;-93
2023/04/27 08:17:14;;;;;;;0.80;0.80;;;;;;;;;;4996005;28;20312;-91
2023/04/27 08:19:48;;;;;;;0.35;0.35;;;;;;;;;;4995767;28;20253;-93
2023/04/27 08:22:17;;;;;;;0.80;0.80;;;;;;;;;;4997120;28;20228;-91
2023/04/27 08:25:07;;;;;;;0.70;0.67;;;;;;;;;;4995112;28;20312;-92
2023/04/27 08:27:43;;;;;;;0.55;0.55;;;;;;;;;;4995837;28;20797;-92
2023/04/27 08:30:18;;;;;;;0.82;0.80;;;;;;;;;;4997364;28;20223;-91
2023/04/27 08:32:46;;;;;;;1.42;1.02;;;;;;;;;;4998051;28;20365;-91
2023/04/27 08:35:18;;;;;;;0.93;0.90;;;;;;;;;;5003811;28;20307;-92
2023/04/27 08:37:46;;;;;;;0.95;0.70;;;;;;;;;;5016958;28;20227;-92
2023/04/27 08:40:23;;;;;;;0.68;0.68;;;;;;;;;;5001684;28;20242;-92
2023/04/27 08:43:03;;;;;;;1.45;0.60;;;;;;;;;;4995628;28;20231;-91
2023/04/27 08:45:31;;;;;;;1.25;0.63;;;;;;;;;;4995659;28;20259;-92
2023/04/27 08:48:00;;;;;;;1.10;0.93;;;;;;;;;;4996200;28;20235;-93
2023/04/27 08:50:30;;;;;;;0.85;0.85;;;;;;;;;;4999132;28;20232;-92
2023/04/27 08:53:03;;;;;;;1.35;0.93;;;;;;;;;;4996150;28;20227;-90
2023/04/27 08:55:31;;;;;;;1.58;0.85;;;;;;;;;;4995702;28;20509;-91
2023/04/27 08:58:00;;;;;;;0.75;0.75;;;;;;;;;;4995800;28;20263;-90
2023/04/27 09:00:30;;;;;;;0.60;0.60;;;;;;;;;;4999234;28;20227;-92
2023/04/27 09:03:02;;;;;;;1.10;0.80;;;;;;;;;;4996943;28;20222;-91
2023/04/27 09:05:33;;;;;;;0.80;0.80;;;;;;;;;;4998681;28;20673;-91
2023/04/27 09:08:09;;;;;;;0.70;0.70;;;;;;;;;;4998386;28;20226;-92
2023/04/27 09:10:53;;;;;;;0.47;0.47;;;;;;;;;;5000082;28;20782;-92
2023/04/27 09:16:41;;;;;;;0.75;0.75;;;;;;;;;;4992407;28;20248;-92
2023/04/27 09:19:27;;;;;;;1.17;0.60;;;;;;;;;;4997288;28;20239;-92
2023/04/27 09:22:08;;;;;;;6.15;3.30;;;;;;;;;;4996069;28;20229;-93
2023/04/27 09:24:39;;;;;;;2.67;0.70;;;;;;;;;;4997269;28;20604;-94
2023/04/27 09:27:09;;;;;;;0.70;0.70;;;;;;;;;;4997469;28;20694;-92
2023/04/27 09:29:49;;;;;;;0.73;0.57;;;;;;;;;;4998324;28;20560;-94
2023/04/27 09:32:42;;;;;;;0.50;0.50;;;;;;;;;;4995045;28;20223;-93
2023/04/27 09:35:43;;;;;;;0.82;0.82;;;;;;;;;;4994870;28;20390;-93
2023/04/27 09:38:17;;;;;;;0.75;0.75;;;;;;;;;;4995085;28;20255;-94
2023/04/27 09:40:47;;;;;;;0.93;0.93;;;;;;;;;;4996593;28;20232;-92
2023/04/27 09:43:19;;;;;;;3.05;1.50;;;;;;;;;;4996463;28;20228;-94
2023/04/27 09:45:59;;;;;;;0.60;0.60;;;;;;;;;;4997816;28;20235;-95
2023/04/27 09:48:41;;;;;;;0.77;0.77;;;;;;;;;;4996215;28;20294;-94
2023/04/27 09:51:51;;;;;;;;;;;;;;;;;;;;;
2023/04/27 09:54:29;;;;;;;2.63;1.23;;;;;;;;;;4995323;28;20235;-93
2023/04/27 09:57:09;;;;;;;0.57;0.57;;;;;;;;;;4996341;28;20245;-93
2023/04/27 09:59:51;;;;;;;0.93;0.93;;;;;;;;;;4996072;28;20224;-94
2023/04/27 10:02:35;;;;;;;0.60;0.60;;;;;;;;;;4996695;28;20220;-92
2023/04/27 10:05:29;;;;;;;1.13;0.88;;;;;;;;;;4995748;28;20287;-95
2023/04/27 10:08:07;;;;;;;1.10;0.80;;;;;;;;;;4993855;28;20235;-92
2023/04/27 10:10:53;;;;;;;;;;;;;;;;;;;;;
2023/04/27 10:13:23;;;;;;;0.88;0.88;;;;;;;;;;5001164;28;20192;-93
2023/04/27 10:16:10;;;;;;;0.90;0.90;;;;;;;;;;5001370;28;20743;-92
2023/04/27 10:19:06;;;;;;;0.60;0.60;;;;;;;;;;5000288;28;20203;-93
2023/04/27 10:22:01;;;;;;;;;;;;;;;;;;;;;
2023/04/27 10:25:08;;;;;;;1.67;0.90;;;;;;;;;;4996099;28;20209;-93
2023/04/27 10:27:46;;;;;;;0.40;0.40;;;;;;;;;;4997824;28;20208;-94
2023/04/27 10:30:23;;;;;;;0.68;0.68;;;;;;;;;;4996904;28;20204;-93
2023/04/27 10:32:52;;;;;;;0.50;0.50;;;;;;;;;;4995892;28;20232;-94
2023/04/27 10:35:22;;;;;;;0.50;0.50;;;;;;;;;;4996065;28;20223;-92
2023/04/27 10:37:54;;;;;;;0.68;0.68;;;;;;;;;;4997961;28;20203;-92
2023/04/27 10:40:36;;;;;;;0.60;0.60;;;;;;;;;;5001552;28;20212;-95
2023/04/27 10:43:11;;;;;;;0.60;0.60;;;;;;;;;;4996865;28;20246;-94
2023/04/27 10:45:42;;;;;;;0.68;0.68;;;;;;;;;;4996624;28;20214;-93
2023/04/27 10:48:14;;;;;;;0.50;0.50;;;;;;;;;;4998743;28;20208;-93
2023/04/27 10:50:47;;;;;;;1.27;0.68;;;;;;;;;;5004391;28;20195;-92
2023/04/27 10:53:15;;;;;;;1.27;1.27;;;;;;;;;;4998728;28;20209;-94
2023/04/27 10:55:47;;;;;;;4.88;0.70;;;;;;;;;;4996742;28;20237;-92
2023/04/27 10:58:15;;;;;;;0.60;0.60;;;;;;;;;;4992812;28;20587;-92
2023/04/27 11:00:45;;;;;;;0.38;0.38;;;;;;;;;;4996640;28;20325;-92
2023/04/27 11:03:20;;;;;;;0.60;0.60;;;;;;;;;;4994713;28;20778;-93
2023/04/27 11:05:52;;;;;;;1.70;0.88;;;;;;;;;;4997168;28;20274;-94
2023/04/27 11:08:22;;;;;;;0.70;0.70;;;;;;;;;;4995839;28;20233;-95
2023/04/27 11:10:58;;;;;;;0.80;0.80;;;;;;;;;;4997190;28;20246;-93
2023/04/27 11:13:32;;;;;;;0.63;0.63;;;;;;;;;;5003603;28;20228;-92
2023/04/27 11:16:01;;;;;;;1.00;1.00;;;;;;;;;;5005166;28;20247;-93
2023/04/27 11:18:34;;;;;;;0.65;0.65;;;;;;;;;;5002247;28;20602;-92
2023/04/27 11:21:09;;;;;;;0.60;0.60;;;;;;;;;;4998041;28;20319;-93
2023/04/27 11:23:38;;;;;;;3.25;0.73;;;;;;;;;;4992936;28;20686;-94
2023/04/27 11:26:20;;;;;;;0.43;0.43;;;;;;;;;;4996684;28;20230;-89
2023/04/27 11:28:58;;;;;;;0.75;0.75;;;;;;;;;;4998311;28;20249;-92
2023/04/27 11:31:27;;;;;;;0.40;0.40;;;;;;;;;;4997794;28;20232;-92
2023/04/27 11:33:55;;;;;;;0.95;0.80;;;;;;;;;;4994981;28;20282;-91
2023/04/27 11:36:33;;;;;;;0.70;0.70;;;;;;;;;;4998008;28;20738;-91
2023/04/27 11:39:08;;;;;;;0.60;0.60;;;;;;;;;;4996224;28;20223;-91
2023/04/27 11:41:44;;;;;;;4.00;0.73;;;;;;;;;;4998187;28;20359;-92
2023/04/27 11:44:12;;;;;;;0.77;0.77;;;;;;;;;;4995153;28;20222;-90
2023/04/27 11:46:44;;;;;;;0.57;0.57;;;;;;;;;;4996322;28;20227;-91
2023/04/27 11:49:12;;;;;;;2.05;0.60;;;;;;;;;;4997904;28;20220;-91
2023/04/27 11:51:40;;;;;;;5.28;1.77;;;;;;;;;;4997351;28;20221;-92
2023/04/27 11:54:15;;;;;;;0.70;0.70;;;;;;;;;;5001697;28;20259;-92
2023/04/27 11:56:46;;;;;;;0.80;0.80;;;;;;;;;;5008108;28;20307;-92
2023/04/27 11:59:26;;;;;;;1.23;1.08;;;;;;;;;;5008173;28;20263;-91
2023/04/27 12:02:01;;;;;;;0.60;0.60;;;;;;;;;;5018122;28;20283;-92
2023/04/27 12:04:30;;;;;;;0.70;0.70;;;;;;;;;;4999690;28;20339;-90
2023/04/27 12:07:07;;;;;;;0.73;0.73;;;;;;;;;;5005493;28;20223;-91
2023/04/27 12:09:39;;;;;;;0.60;0.60;;;;;;;;;;5012900;28;20214;-93
2023/04/27 12:12:26;;;;;;;3.10;0.93;;;;;;;;;;5014367;28;20344;-92
2023/04/27 12:14:58;;;;;;;0.90;0.90;;;;;;;;;;5007749;28;20218;-93
2023/04/27 12:17:31;;;;;;;1.05;0.90;;;;;;;;;;5005415;28;20320;-91
2023/04/27 12:20:00;;;;;;;1.00;0.90;;;;;;;;;;5002314;28;20218;-91
2023/04/27 12:22:30;;;;;;;0.90;0.88;;;;;;;;;;4999469;28;20224;-90
2023/04/27 12:24:57;;;;;;;3.20;1.00;;;;;;;;;;5008013;28;20231;-90
2023/04/27 12:27:31;;;;;;;0.60;0.50;;;;;;;;;;5001253;28;20244;-91
2023/04/27 12:30:00;;;;;;;0.88;0.88;;;;;;;;;;5000163;28;20621;-94
2023/04/27 12:32:32;;;;;;;0.52;0.52;;;;;;;;;;5012674;28;20228;-90
2023/04/27 12:35:02;;;;;;;1.30;0.60;;;;;;;;;;5016829;28;20219;-93
2023/04/27 12:37:47;;;;;;;0.57;0.57;;;;;;;;;;5016144;28;20232;-91
2023/04/27 12:43:03;;;;;;;0.60;0.60;;;;;;;;;;4991862;28;20249;-93
2023/04/27 12:45:53;;;;;;;0.77;0.77;;;;;;;;;;4995616;28;20255;-92
2023/04/27 12:48:34;;;;;;;0.82;0.82;;;;;;;;;;4995761;28;20231;-94
2023/04/27 12:51:27;;;;;;;0.60;0.60;;;;;;;;;;4994543;28;20226;-93
2023/04/27 12:53:59;;;;;;;0.90;0.90;;;;;;;;;;4996367;28;20237;-93
2023/04/27 12:56:36;;;;;;;1.42;0.90;;;;;;;;;;4996164;28;20257;-93
2023/04/27 12:59:09;;;;;;;1.13;0.73;;;;;;;;;;4995588;28;20226;-91
2023/04/27 13:01:37;;;;;;;0.80;0.80;;;;;;;;;;4996057;28;20246;-92
2023/04/27 13:04:10;;;;;;;0.50;0.50;;;;;;;;;;4996413;28;20228;-93
2023/04/27 13:06:39;;;;;;;0.90;0.90;;;;;;;;;;5009431;28;20224;-93
2023/04/27 13:09:08;;;;;;;0.52;0.52;;;;;;;;;;5002136;28;20790;-92
2023/04/27 13:11:58;;;;;;;;;;;;;;;;;;;;;
2023/04/27 13:14:44;;;;;;;0.60;0.60;;;;;;;;;;4996920;28;20230;-91
2023/04/27 13:17:22;;;;;;;0.70;0.70;;;;;;;;;;4987627;28;20267;-93
2023/04/27 13:19:52;;;;;;;0.80;0.80;;;;;;;;;;4996158;28;20247;-92
2023/04/27 13:22:35;;;;;;;0.80;0.80;;;;;;;;;;4995560;28;20232;-91
2023/04/27 13:25:16;;;;;;;0.50;0.50;;;;;;;;;;4998139;28;20273;-91
2023/04/27 13:27:46;;;;;;;0.80;0.80;;;;;;;;;;4997344;28;20229;-92
2023/04/27 13:30:16;;;;;;;0.82;0.82;;;;;;;;;;4994193;28;20228;-91
2023/04/27 13:33:01;;;;;;;0.55;0.55;;;;;;;;;;4994916;28;20274;-90
2023/04/27 13:35:56;;;;;;;0.60;0.60;;;;;;;;;;4975932;28;20493;-91
2023/04/27 13:38:27;;;;;;;1.00;1.00;;;;;;;;;;4997749;28;20250;-93
2023/04/27 13:41:02;;;;;;;0.50;0.50;;;;;;;;;;4994945;28;20221;-92
2023/04/27 13:43:33;;;;;;;0.77;0.77;;;;;;;;;;4996017;28;20233;-93
2023/04/27 13:46:07;;;;;;;0.43;0.43;;;;;;;;;;4993396;28;20234;-93
2023/04/27 13:48:46;;;;;;;0.80;0.80;;;;;;;;;;4996399;28;20314;-92
2023/04/27 13:51:39;;;;;;;1.80;0.93;;;;;;;;;;4995914;28;20223;-92
2023/04/27 13:54:15;;;;;;;0.70;0.70;;;;;;;;;;4996054;28;20250;-92
2023/04/27 13:56:49;;;;;;;0.70;0.70;;;;;;;;;;4995776;28;20243;-93
2023/04/27 13:59:23;;;;;;;0.97;0.90;;;;;;;;;;5000067;28;20234;-92
2023/04/27 14:02:07;;;;;;;0.60;0.60;;;;;;;;;;5014692;28;20796;-92
2023/04/27 14:04:48;;;;;;;0.80;0.80;;;;;;;;;;5012547;28;20229;-93
2023/04/27 14:07:36;;;;;;;1.77;0.60;;;;;;;;;;5009218;28;20227;-91
2023/04/27 14:10:15;;;;;;;0.87;0.70;;;;;;;;;;5004087;28;20232;-90
2023/04/27 14:15:35;;;;;;;0.87;0.87;;;;;;;;;;5002673;28;20229;-92
2023/04/27 14:18:27;;;;;;;0.70;0.70;;;;;;;;;;4998662;28;20243;-92
2023/04/27 14:20:57;;;;;;;1.20;1.10;;;;;;;;;;5009544;28;20439;-93
2023/04/27 14:23:34;;;;;;;0.67;0.67;;;;;;;;;;5007750;28;20318;-90
2023/04/27 14:26:03;;;;;;;3.80;1.10;;;;;;;;;;5009877;28;20257;-92
2023/04/27 14:28:40;;;;;;;0.60;0.60;;;;;;;;;;5002125;28;20801;-92
2023/04/27 14:31:08;;;;;;;0.90;0.90;;;;;;;;;;4995974;28;20227;-93
2023/04/27 14:33:40;;;;;;;0.80;0.80;;;;;;;;;;4986589;28;20221;-91
2023/04/27 14:36:11;;;;;;;0.60;0.60;;;;;;;;;;4992128;28;20251;-91
2023/04/27 14:39:05;;;;;;;0.90;0.90;;;;;;;;;;4980839;28;20240;-93
2023/04/27 14:45:32;;;;;;;0.50;0.50;;;;;;;;;;4977154;28;20245;-91
2023/04/27 14:48:07;;;;;;;0.73;0.73;;;;;;;;;;4971964;28;20236;-89
2023/04/27 14:50:43;;;;;;;0.90;0.90;;;;;;;;;;4972439;28;20264;-89
2023/04/27 14:53:12;;;;;;;0.93;0.80;;;;;;;;;;4971746;28;20319;-89
2023/04/27 14:55:48;;;;;;;7.00;0.90;;;;;;;;;;4973668;28;20233;-88
2023/04/27 14:58:22;;;;;;;1.20;1.20;;;;;;;;;;4976539;28;20251;-88
2023/04/27 15:00:54;;;;;;;1.80;0.67;;;;;;;;;;4988333;28;20613;-88
2023/04/27 15:03:31;;;;;;;2.33;1.13;;;;;;;;;;4994841;28;20295;-86
2023/04/27 15:06:04;;;;;;;1.47;1.20;;;;;;;;;;4995452;28;20283;-89
2023/04/27 15:08:44;;;;;;;1.40;1.30;;;;;;;;;;4991574;28;20676;-90
2023/04/27 15:11:24;;;;;;;3.60;3.20;;;;;;;;;;4991596;28;20349;-90
2023/04/27 15:14:03;;;;;;;2.13;1.80;;;;;;;;;;4991532;28;20232;-89
2023/04/27 15:16:56;;;;;;;1.40;1.30;;;;;;;;;;4991946;28;20225;-89
2023/04/27 15:22:30;;;;;;;2.50;1.10;;;;;;;;;;5000669;28;20243;-90
2023/04/27 15:25:15;;;;;;;1.00;1.00;;;;;;;;;;5012257;28;20227;-89
2023/04/27 15:27:50;;;;;;;1.40;1.30;;;;;;;;;;5005144;28;20235;-89
2023/04/27 15:30:22;;;;;;;3.90;1.60;;;;;;;;;;4999334;28;20313;-89
2023/04/27 15:32:59;;;;;;;1.33;1.00;;;;;;;;;;4991937;28;20707;-89
2023/04/27 15:35:39;;;;;;;1.77;1.10;;;;;;;;;;4992181;28;20226;-87
2023/04/27 15:38:16;;;;;;;1.27;0.80;;;;;;;;;;4990160;28;20243;-88
2023/04/27 15:40:48;;;;;;;1.63;1.03;;;;;;;;;;4992999;28;20225;-89
2023/04/27 15:43:20;;;;;;;0.97;0.97;;;;;;;;;;5000922;28;20734;-90
2023/04/27 15:45:52;;;;;;;1.17;1.07;;;;;;;;;;4994482;28;20237;-88
2023/04/27 15:48:24;;;;;;;1.07;0.97;;;;;;;;;;4990858;28;20225;-89
2023/04/27 15:50:58;;;;;;;1.10;1.10;;;;;;;;;;4991182;28;20225;-89
2023/04/27 15:53:56;;;;;;;0.70;0.70;;;;;;;;;;4991621;28;20234;-89
2023/04/27 15:56:50;;;;;;;7.37;1.50;;;;;;;;;;4991542;28;20218;-90
2023/04/27 15:59:36;;;;;;;1.27;1.10;;;;;;;;;;4990134;28;20287;-88
2023/04/27 16:10:57;;;;;;;1.00;0.93;;;;;;;;;;4991239;28;20229;-89
2023/04/27 16:13:55;;;;;;;0.93;0.93;;;;;;;;;;4990807;28;20235;-89
2023/04/27 16:16:58;;;;;;;;;;;;;;;;;;;;;
2023/04/27 16:19:48;;;;;;;1.30;1.20;;;;;;;;;;4997172;28;20250;-89
2023/04/27 16:22:40;;;;;;;1.47;1.40;;;;;;;;;;5000406;28;20231;-88
2023/04/27 16:25:35;;;;;;;8.00;1.20;;;;;;;;;;4916193;29;20259;-91
2023/04/27 16:28:27;;;;;;;1.73;1.60;;;;;;;;;;4939008;28;20266;-89
2023/04/27 16:31:01;;;;;;;3.10;1.27;;;;;;;;;;5000863;28;20247;-89
2023/04/27 16:33:54;;;;;;;2.23;1.10;;;;;;;;;;4996291;28;20247;-91
2023/04/27 16:36:31;;;;;;;4.07;2.13;;;;;;;;;;4997940;28;20227;-93
2023/04/27 16:42:00;;;;;;;1.63;0.93;;;;;;;;;;4937786;29;20312;-93
2023/04/27 16:44:53;;;;;;;1.53;1.10;;;;;;;;;;4938238;29;20236;-94
2023/04/27 16:47:35;;;;;;;4.33;1.33;;;;;;;;;;4937857;29;20231;-94